Racecast

Jacob Morgan

Laramie (WY) · 12 · EASTWY D4A4A · Compare head to head

Athlete rating 126.1 2015 XC season
Best race 132.7 XC
Races 43
Seasons 4 2012 — 2015

RankedNation #3840·CO #110·Team #6 ?

Speed rating — all races

Cross Country

XC speed rating

2015 XC 125.5

Laramie (WY) · Grade 12

Date Meet Event Result Place Rating Difficulty PR/SR Flags
2015-10-24 Sheridan VA Medical Center 5000m 16:36.5 11th · 6th on team 126.1 +0.027 CSR
2015-10-02 Margaret W. Carpenter Recreation Center 5000m 17:04 18th · 5th on team 123.2 +0.014 ★CR CSR
2015-09-26 Eagle Island State Park 5000m 16:55.4 84th · 3rd on team 125.9 +0.029 ★CR CSR
2015-09-18 Fort Collins High School 5000m 16:20.7 7th · 2nd on team 128.3 +0.023 ★CR SR CSR RSR
2015-09-11 Heritage High School 5000m 16:31 10th · 3rd on team 124.9 -0.001 ★CR SR CSR RSR
2015-08-28 Beartrap Meadow Park 5000m 18:06.6 6th · 4th on team 124.3 +0.104 SR CSR RSR

2014 XC 121.2

Laramie (WY) · Grade 11

Date Meet Event Result Place Rating Difficulty PR/SR Flags
2014-10-25 Sheridan VA Medical Center 5000m 16:23.1 4th · 2nd on team 128.8 +0.027 SR CSR RSR
2014-09-26 Robbinsdale Park 5000m 18:41.9 23rd · 8th on team 116.2 +0.057 ★CR CSR
2014-09-12 Heritage High School 5000m 16:44 19th · 3rd on team 121.1 -0.001 CR SR CSR RSR
2014-08-30 University of Wyoming 5000m 18:54 6th · 3rd on team 118.6 +0.093 ★CR SR CSR RSR

2013 XC 127.9

Laramie (WY) · Grade 10

Date Meet Event Result Place Rating Difficulty PR/SR Flags
2013-10-26 Sheridan VA Medical Center 5000m 16:12.1 5th · 3rd on team 132.7 +0.027 ★PR ★CR ★R SR CSR RSR
2013-09-27 Elks Golf Course 5000m 16:21.1 8th · 4th on team 127.0 +0.003 PR ★CR R SR CSR RSR
2013-09-06 Rawlins High School 5000m 17:43 4th · 4th on team 125.1 +0.081 ★CR SR CSR
2013-08-30 Beartrap Meadow Park 5000m 17:50.4 4th · 3rd on team 126.9 +0.104 ★CR R SR CSR RSR

2012 XC 122.3

Laramie (WY) · Grade 9

Date Meet Event Result Place Rating Difficulty PR/SR Flags
2012-10-12 Jacoby Golf Course 5000m 17:37.1 3rd · 3rd on team 123.3 +0.060 ★CR R CSR RSR
2012-10-05 Northwest Open Space 5000m 16:59.3 36th · 4th on team 122.2 +0.020 PR ★CR SR CSR
2012-09-21 Rapid City Central 5000m 17:07.4 9th · 4th on team 123.2 +0.023 ★CR R CSR RSR
2012-09-14 Heritage High School 5000m 17:00 25th · 4th on team 122.2 -0.001 PR CR R SR CSR RSR
2012-09-07 CAM-PLEX Park 5000m 17:40.5 17th · 4th on team 120.5 +0.036 PR ★CR R SR CSR RSR

Track & Field

TF speed rating

2015 TF 121.7

Laramie (WY) · Grade 11

Date Meet Event Result Place Rating Difficulty PR/SR Flags
2015-05-21 WHSAA State 1A 2A 3A 4A Track & Field Championship 3200m 10:02.92 8th · 2nd on team 124.9 -0.012 SR
2015-05-15 1A-2A-4A East Regional 1600m 4:40.85 9th · 3rd on team 124.1 -0.017
2015-05-08 Wiseman Invitational 3200m 10:09.29 2nd · 2nd on team 124.2 -0.012 SR
2015-05-08 Wiseman Invitational 1600m 4:45.4 3rd · 2nd on team 122.6 -0.012
2015-05-01 DPS Viking Invitational 1600m 4:37.45 5th · 2nd on team 125.8 -0.012 SR RSR
2015-04-24 LoboCat Roundup 3200m 10:20.33 7th · 2nd on team 121.9 -0.011 SR RSR
2015-04-10 Okie Blanchard Invite 1600m 4:51.3 2nd · 2nd on team 121.3 +0.006 SR RSR
2015-04-10 Okie Blanchard Invite 3200m 10:39.17 1st · 1st on team 119.6 +0.006 SR
2015-03-28 Altitude Running Invitational 3200m 10:46.96 5th · 2nd on team 117.6 -0.009 SR RSR
2015-03-28 Altitude Running Invitational 1600m 5:03.65 11th · 2nd on team 115.6 -0.009 SR

2014 TF 124.0

Laramie (WY) · Grade 10

Date Meet Event Result Place Rating Difficulty PR/SR Flags
2014-05-24 WHSAA 4A Track & Field Championships 3200m 10:08.36 9th · 3rd on team 124.3 -0.012
2014-05-16 4A East Regional 3200m 10:19.72 4th · 3rd on team 123.5 -0.001
2014-04-11 Okie Blanchard Invite 800m 2:13.74 10th · 1st on team 116.4 -0.001 SR
2014-04-11 Okie Blanchard Invite 1600m 4:42.67 3rd · 1st on team 124.6 -0.001
2014-03-07 State Indoor 1600m 4:32.97 9th · 4th on team 127.3 -0.012 ★PR SR RSR
2014-03-07 State Indoor 3200m 9:46.78 4th · 3rd on team 128.0 -0.012 ★PR SR RSR

2013 TF 120.8

Laramie (WY) · Grade 9

Date Meet Event Result Place Rating Difficulty PR/SR Flags
2013-05-10 1A-2A-4A East Regional Track & Field 3200m 10:06.74 6th · 3rd on team 123.8 -0.012 R RSR
2013-05-10 1A-2A-4A East Regional Track & Field 1600m 4:35.72 8th · 2nd on team 126.1 -0.012 PR R SR RSR
2013-04-27 Black Hills Track Classic 3200m 10:06.56 7th · 3rd on team 122.7 -0.024 PR SR RSR
2013-04-27 Black Hills Track Classic 1600m 4:46.18 9th · 2nd on team 119.9 -0.024 PR SR
2013-03-02 WY State Indoor Track Championships 1600m 4:47.76 22nd · 5th on team 120.4 -0.012 PR SR RSR
2013-03-02 WY State Indoor Track Championships 3200m 10:17.97 14th · 4th on team 121.2 -0.012 PR SR RSR
2013-01-25 Stadium Sports Grill HS Open 1600m 4:57.91 23rd · 5th on team 116.7 -0.023 PR SR RSR
2013-01-25 Stadium Sports Grill HS Open 800m 2:13.62 15th · 1st on team 115.4 -0.023 ★PR SR